createdAt,value
2023-04-28T05:05:21.331Z,16.90
2023-04-28T05:10:27.472Z,16.80
2023-04-28T05:15:31.530Z,16.80
2023-04-28T05:20:41.124Z,16.70
2023-04-28T05:25:45.050Z,16.70
2023-04-28T05:30:48.565Z,16.70
2023-04-28T05:35:53.537Z,17.80
2023-04-28T05:40:56.989Z,16.80
2023-04-28T05:46:01.414Z,16.70
2023-04-28T05:51:07.607Z,17.50
2023-04-28T05:56:11.387Z,16.70
2023-04-28T06:01:14.870Z,16.80
2023-04-28T06:06:19.791Z,16.80
2023-04-28T06:11:23.803Z,17.00
2023-04-28T06:16:27.213Z,17.10
2023-04-28T06:21:32.460Z,17.00
2023-04-28T06:26:35.826Z,17.10
2023-04-28T06:31:39.168Z,17.20
2023-04-28T06:36:43.999Z,17.20
2023-04-28T06:41:47.341Z,16.90
2023-04-28T06:46:51.520Z,17.30
2023-04-28T06:51:56.262Z,17.50
2023-04-28T06:56:59.567Z,17.40
2023-04-28T07:02:03.133Z,17.40
2023-04-28T07:07:08.425Z,17.50
2023-04-28T07:12:11.788Z,14.40
2023-04-28T07:17:15.098Z,17.60
2023-04-28T07:22:19.731Z,17.50
2023-04-28T07:27:23.323Z,17.70
2023-04-28T07:32:26.721Z,17.70
2023-04-28T07:37:32.548Z,17.90
2023-04-28T07:42:36.520Z,17.80
2023-04-28T07:47:39.856Z,18.00
2023-04-28T07:52:44.711Z,17.90
2023-04-28T07:57:49.530Z,18.00
2023-04-28T08:02:53.022Z,18.00
2023-04-28T08:07:57.765Z,18.10
2023-04-28T08:13:01.288Z,18.10
2023-04-28T08:18:04.652Z,18.20
2023-04-28T08:23:09.698Z,18.30
2023-04-28T08:28:13.027Z,18.30
2023-04-28T08:33:16.580Z,18.50
2023-04-28T08:38:24.065Z,18.70
2023-04-28T08:43:28.624Z,19.00
2023-04-28T08:48:33.434Z,19.30
2023-04-28T08:54:05.976Z,19.20
2023-04-28T08:59:04.116Z,19.30
2023-04-28T09:04:07.668Z,19.50
2023-04-28T09:09:21.025Z,19.60
2023-04-28T09:14:24.766Z,19.70
2023-04-28T09:19:34.195Z,19.80
2023-04-28T09:24:40.452Z,20.10
2023-04-28T09:29:53.099Z,20.20
2023-04-28T09:34:57.580Z,20.30
2023-04-28T09:40:07.264Z,20.20
2023-04-28T09:45:11.373Z,20.30
2023-04-28T09:50:17.353Z,20.30
2023-04-28T09:55:23.058Z,20.40
2023-04-28T10:00:26.684Z,20.40
2023-04-28T10:05:30.098Z,20.50
2023-04-28T10:10:35.189Z,20.40
2023-04-28T10:15:38.661Z,20.40
2023-04-28T10:20:43.436Z,20.50
2023-04-28T10:25:49.871Z,20.20
2023-04-28T10:31:08.093Z,20.20
2023-04-28T10:36:11.528Z,20.20
2023-04-28T10:41:29.671Z,20.20
2023-04-28T10:46:59.319Z,20.10
2023-04-28T10:52:02.625Z,20.30
2023-04-28T10:57:21.849Z,20.40
2023-04-28T11:02:49.820Z,20.40
2023-04-28T11:08:11.874Z,20.60
2023-04-28T11:13:33.884Z,20.70
2023-04-28T11:18:48.778Z,20.80
2023-04-28T11:23:52.171Z,20.80
2023-04-28T11:28:57.333Z,21.00
2023-04-28T11:34:01.890Z,21.10
2023-04-28T11:39:08.767Z,21.40
2023-04-28T11:44:13.969Z,22.00
2023-04-28T11:49:17.840Z,22.70
2023-04-28T11:54:22.317Z,23.30
2023-04-28T11:59:27.783Z,23.50
2023-04-28T12:04:32.452Z,23.80
2023-04-28T12:09:36.144Z,23.90
2023-04-28T12:14:56.735Z,23.80
2023-04-28T12:20:01.018Z,23.50
2023-04-28T12:25:08.247Z,25.70
2023-04-28T12:30:29.087Z,22.40
2023-04-28T12:35:33.301Z,23.30
2023-04-28T12:40:36.697Z,23.20
2023-04-28T12:45:41.899Z,23.10
2023-04-28T12:50:45.258Z,23.30
2023-04-28T12:55:48.822Z,23.30
2023-04-28T13:00:53.607Z,23.40
2023-04-28T13:05:56.940Z,23.50
2023-04-28T13:11:00.336Z,23.60
2023-04-28T13:16:06.388Z,23.90
2023-04-28T13:21:09.803Z,24.50
2023-04-28T13:26:13.148Z,24.90
2023-04-28T13:31:18.173Z,24.90
2023-04-28T13:36:21.547Z,24.80
2023-04-28T13:41:25.808Z,24.50
2023-04-28T13:46:30.681Z,24.50
2023-04-28T13:51:34.070Z,24.70
2023-04-28T13:56:37.474Z,24.70
2023-04-28T14:01:42.140Z,24.70
2023-04-28T14:06:45.545Z,24.60
2023-04-28T14:11:48.909Z,24.80
2023-04-28T14:16:53.618Z,24.40
2023-04-28T14:21:56.986Z,24.60
2023-04-28T14:27:00.272Z,24.60
2023-04-28T14:32:04.946Z,24.40
2023-04-28T14:37:08.375Z,24.40
2023-04-28T14:42:12.358Z,24.60
2023-04-28T14:47:17.365Z,24.70
2023-04-28T14:52:21.854Z,24.60
2023-04-28T14:57:25.702Z,24.70
2023-04-28T15:02:30.613Z,24.70
2023-04-28T15:07:34.550Z,24.60
2023-04-28T15:12:37.847Z,24.40
2023-04-28T15:17:42.593Z,24.20
2023-04-28T15:22:46.064Z,24.10
2023-04-28T15:27:50.292Z,23.90
2023-04-28T15:32:54.958Z,23.80
2023-04-28T15:37:58.407Z,23.70
2023-04-28T15:43:02.852Z,23.60
2023-04-28T15:48:07.833Z,23.40
2023-04-28T15:53:11.417Z,23.70
2023-04-28T15:58:14.808Z,23.50
2023-04-28T16:03:19.714Z,23.50
2023-04-28T16:08:25.126Z,23.30
2023-04-28T16:13:32.553Z,23.20
2023-04-28T16:18:37.313Z,23.90
2023-04-28T16:23:41.032Z,22.90
2023-04-28T16:28:44.521Z,22.90
2023-04-28T16:33:49.632Z,22.90
2023-04-28T16:38:52.931Z,22.80
2023-04-28T16:43:56.281Z,22.70
2023-04-28T16:49:00.983Z,22.50
2023-04-28T16:54:04.323Z,23.10
2023-04-28T16:59:07.615Z,22.40
2023-04-28T17:04:12.659Z,22.20
2023-04-28T17:09:16.220Z,22.00
2023-04-28T17:14:19.691Z,21.80
2023-04-28T17:19:24.575Z,21.60
2023-04-28T17:24:27.986Z,21.40
2023-04-28T17:29:31.619Z,21.30
2023-04-28T17:34:36.337Z,21.10
2023-04-28T17:39:39.645Z,21.00
2023-04-28T17:44:42.943Z,20.80
2023-04-28T17:49:47.671Z,21.40
2023-04-28T17:54:51.413Z,20.60
2023-04-28T17:59:54.872Z,20.40
2023-04-28T18:04:59.556Z,20.30
2023-04-28T18:10:03.385Z,20.20
2023-04-28T18:15:08.317Z,19.90
2023-04-28T18:20:13.602Z,19.80
2023-04-28T18:25:19.145Z,19.30
2023-04-28T18:30:22.576Z,19.40
2023-04-28T18:35:27.471Z,19.20
2023-04-28T18:40:33.231Z,19.10
2023-04-28T18:45:39.124Z,18.90
2023-04-28T18:50:44.711Z,18.80
2023-04-28T18:55:49.197Z,18.60
2023-04-28T19:00:53.119Z,18.50
2023-04-28T19:05:57.815Z,18.40
2023-04-28T19:11:02.001Z,18.30
2023-04-28T19:16:05.766Z,18.00
2023-04-28T19:21:12.232Z,17.90
2023-04-28T19:26:15.661Z,17.80
2023-04-28T19:31:19.141Z,17.60
2023-04-28T19:36:24.134Z,17.40
2023-04-28T19:41:27.806Z,17.40
2023-04-28T19:46:31.318Z,17.30
2023-04-28T19:51:36.004Z,17.20
2023-04-28T19:56:39.332Z,17.20
2023-04-28T20:01:43.643Z,17.70
2023-04-28T20:06:48.888Z,17.00
2023-04-28T20:11:52.218Z,16.90
2023-04-28T20:16:55.913Z,16.90
2023-04-28T20:22:02.962Z,16.80
2023-04-28T20:27:06.278Z,16.60
2023-04-28T20:32:10.620Z,16.40
2023-04-28T20:37:15.371Z,16.70
2023-04-28T20:42:18.697Z,16.40
2023-04-28T20:47:22.026Z,16.20
2023-04-28T20:52:27.218Z,16.20
2023-04-28T20:57:30.548Z,16.20
2023-04-28T21:02:34.129Z,16.10
2023-04-28T21:07:38.850Z,16.10
2023-04-28T21:12:42.471Z,16.10
2023-04-28T21:17:45.892Z,16.50
2023-04-28T21:22:50.639Z,15.90
2023-04-28T21:27:54.033Z,15.70
2023-04-28T21:32:57.444Z,15.70
2023-04-28T21:38:02.137Z,15.80
2023-04-28T21:43:05.916Z,15.60
2023-04-28T21:48:09.613Z,15.60
2023-04-28T21:53:14.775Z,15.50
2023-04-28T21:58:18.104Z,15.20
2023-04-28T22:03:21.864Z,15.40
2023-04-28T22:08:26.664Z,15.40
2023-04-28T22:13:29.964Z,15.50
2023-04-28T22:18:33.276Z,15.50
2023-04-28T22:23:37.957Z,15.50
2023-04-28T22:28:41.484Z,15.40
